createdAt,value
2022-09-23T00:00:23.030Z,1022.0
2022-09-23T00:15:23.040Z,1022.0
2022-09-23T00:30:23.089Z,1022.0
2022-09-23T00:45:22.998Z,1022.0
2022-09-23T01:00:25.613Z,1022.0
2022-09-23T01:15:23.075Z,1022.0
2022-09-23T01:30:23.352Z,1022.0
2022-09-23T01:45:22.866Z,1022.0
2022-09-23T02:00:23.433Z,1022.0
2022-09-23T02:15:23.120Z,1022.0
2022-09-23T02:30:22.916Z,1022.0
2022-09-23T02:45:23.133Z,1022.0
2022-09-23T03:00:23.318Z,1022.0
2022-09-23T03:15:23.551Z,1022.0
2022-09-23T03:30:26.033Z,1022.0
2022-09-23T03:45:23.230Z,1022.0
2022-09-23T04:00:23.881Z,1022.0
2022-09-23T04:15:23.213Z,1022.0
2022-09-23T04:30:23.439Z,1021.3
2022-09-23T04:45:23.338Z,1021.0
2022-09-23T05:00:27.929Z,1021.0
2022-09-23T05:15:23.460Z,1022.0
2022-09-23T05:30:23.224Z,1022.0
2022-09-23T05:45:23.377Z,1022.0
2022-09-23T06:00:41.852Z,1022.0
2022-09-23T06:15:23.318Z,1022.0
2022-09-23T06:30:23.426Z,1022.0
2022-09-23T06:45:23.141Z,1022.0
2022-09-23T07:00:26.530Z,1022.0
2022-09-23T07:15:23.328Z,1021.7
2022-09-23T07:30:25.941Z,1021.0
2022-09-23T07:45:23.225Z,1021.0
2022-09-23T08:00:30.353Z,1021.0
2022-09-23T08:15:23.306Z,1021.0
2022-09-23T08:30:23.516Z,1021.0
2022-09-23T08:45:23.607Z,1021.0
2022-09-23T09:00:29.583Z,1021.0
2022-09-23T09:15:24.670Z,1021.0
2022-09-23T09:30:23.664Z,1021.0
2022-09-23T09:45:23.637Z,1021.0
2022-09-23T10:00:32.773Z,1021.0
2022-09-23T10:15:23.596Z,1020.0
2022-09-23T10:30:23.550Z,1020.0
2022-09-23T10:45:23.398Z,1020.0
2022-09-23T11:00:36.863Z,1020.0
2022-09-23T11:15:23.517Z,1020.0
2022-09-23T11:30:28.050Z,1019.7
2022-09-23T11:45:23.310Z,1019.0
2022-09-23T12:00:34.462Z,1019.0
2022-09-23T12:15:23.750Z,1019.0
2022-09-23T12:30:32.136Z,1019.0
2022-09-23T12:45:23.371Z,1019.0
2022-09-23T13:00:23.380Z,1019.0
2022-09-23T13:15:23.616Z,1018.0
2022-09-23T13:30:26.128Z,1018.0
2022-09-23T13:45:23.241Z,1018.0
2022-09-23T14:00:28.246Z,1018.0
2022-09-23T14:15:23.653Z,1018.0
2022-09-23T14:30:23.428Z,1018.0
2022-09-23T14:45:23.429Z,1018.0
2022-09-23T15:00:24.219Z,1018.0
2022-09-23T15:15:23.671Z,1018.0
2022-09-23T15:30:24.126Z,1018.0
2022-09-23T15:45:23.424Z,1018.0
2022-09-23T16:00:31.195Z,1018.0
2022-09-23T16:15:23.633Z,1018.0
2022-09-23T16:30:24.761Z,1018.0
2022-09-23T16:45:23.551Z,1018.0
2022-09-23T17:00:29.485Z,1018.0
2022-09-23T17:15:23.590Z,1018.0
2022-09-23T17:30:23.504Z,1018.0
2022-09-23T17:45:23.590Z,1018.0
2022-09-23T18:00:23.826Z,1018.0
2022-09-23T18:15:24.008Z,1018.0
2022-09-23T18:30:23.941Z,1018.0
2022-09-23T18:45:23.710Z,1018.0
2022-09-23T19:00:23.517Z,1018.0
2022-09-23T19:15:23.682Z,1018.0
2022-09-23T19:30:23.676Z,1018.0
2022-09-23T19:45:23.766Z,1018.0
2022-09-23T20:00:26.632Z,1018.0
2022-09-23T20:15:23.981Z,1018.0
2022-09-23T20:30:23.871Z,1018.0
2022-09-23T20:45:24.414Z,1018.0
2022-09-23T21:00:23.849Z,1017.3
2022-09-23T21:15:23.871Z,1017.3
2022-09-23T21:30:23.741Z,1017.0
2022-09-23T21:45:24.069Z,1017.5
2022-09-23T22:15:33.351Z,1018.0
2022-09-23T22:30:33.087Z,1018.0
2022-09-23T22:45:32.877Z,1018.0
2022-09-23T23:00:32.960Z,1018.0
2022-09-23T23:15:23.124Z,1018.0
2022-09-23T23:30:23.140Z,1017.3
2022-09-23T23:45:23.071Z,1017.3
